sensor_id;sensor_type;location;lat;lon;timestamp;P1;durP1;ratioP1;P2;durP2;ratioP2
22565;SDS011;11449;51.330;19.378;2023-04-24T00:02:45;38.40;;;23.30;;
22565;SDS011;11449;51.330;19.378;2023-04-24T00:07:54;36.00;;;21.20;;
22565;SDS011;11449;51.330;19.378;2023-04-24T00:13:02;33.80;;;20.60;;
22565;SDS011;11449;51.330;19.378;2023-04-24T00:18:10;34.70;;;21.70;;
22565;SDS011;11449;51.330;19.378;2023-04-24T00:23:18;34.50;;;21.80;;
22565;SDS011;11449;51.330;19.378;2023-04-24T00:28:26;36.80;;;23.80;;
22565;SDS011;11449;51.330;19.378;2023-04-24T00:33:33;35.90;;;23.00;;
22565;SDS011;11449;51.330;19.378;2023-04-24T00:38:41;37.30;;;22.00;;
22565;SDS011;11449;51.330;19.378;2023-04-24T00:43:49;33.90;;;20.00;;
22565;SDS011;11449;51.330;19.378;2023-04-24T00:48:56;51.70;;;27.50;;
22565;SDS011;11449;51.330;19.378;2023-04-24T00:54:06;64.80;;;31.70;;
22565;SDS011;11449;51.330;19.378;2023-04-24T00:59:15;41.30;;;25.90;;
22565;SDS011;11449;51.330;19.378;2023-04-24T01:04:23;35.30;;;23.40;;
22565;SDS011;11449;51.330;19.378;2023-04-24T01:09:31;39.70;;;25.90;;
22565;SDS011;11449;51.330;19.378;2023-04-24T01:14:39;38.10;;;25.10;;
22565;SDS011;11449;51.330;19.378;2023-04-24T01:19:47;41.10;;;25.60;;
22565;SDS011;11449;51.330;19.378;2023-04-24T01:24:55;48.70;;;27.20;;
22565;SDS011;11449;51.330;19.378;2023-04-24T01:30:06;62.40;;;34.00;;
22565;SDS011;11449;51.330;19.378;2023-04-24T01:35:13;64.80;;;34.80;;
22565;SDS011;11449;51.330;19.378;2023-04-24T01:40:21;34.90;;;22.10;;
22565;SDS011;11449;51.330;19.378;2023-04-24T01:45:31;39.00;;;23.90;;
22565;SDS011;11449;51.330;19.378;2023-04-24T01:50:39;39.30;;;22.20;;
22565;SDS011;11449;51.330;19.378;2023-04-24T01:55:47;40.20;;;24.10;;
22565;SDS011;11449;51.330;19.378;2023-04-24T02:00:56;42.60;;;26.60;;
22565;SDS011;11449;51.330;19.378;2023-04-24T02:06:03;39.90;;;23.50;;
22565;SDS011;11449;51.330;19.378;2023-04-24T02:11:11;40.50;;;24.80;;
22565;SDS011;11449;51.330;19.378;2023-04-24T02:16:20;41.40;;;24.90;;
22565;SDS011;11449;51.330;19.378;2023-04-24T02:21:28;41.80;;;24.30;;
22565;SDS011;11449;51.330;19.378;2023-04-24T02:26:36;43.40;;;25.20;;
22565;SDS011;11449;51.330;19.378;2023-04-24T02:31:44;38.20;;;24.10;;
22565;SDS011;11449;51.330;19.378;2023-04-24T02:36:51;45.50;;;28.20;;
22565;SDS011;11449;51.330;19.378;2023-04-24T02:42:01;48.40;;;27.30;;
22565;SDS011;11449;51.330;19.378;2023-04-24T02:47:10;48.60;;;26.50;;
22565;SDS011;11449;51.330;19.378;2023-04-24T02:52:18;48.30;;;28.20;;
22565;SDS011;11449;51.330;19.378;2023-04-24T02:57:25;48.50;;;27.90;;
22565;SDS011;11449;51.330;19.378;2023-04-24T03:02:33;46.90;;;27.60;;
22565;SDS011;11449;51.330;19.378;2023-04-24T03:07:41;44.10;;;26.90;;
22565;SDS011;11449;51.330;19.378;2023-04-24T03:12:49;43.40;;;24.20;;
22565;SDS011;11449;51.330;19.378;2023-04-24T03:17:57;52.50;;;25.60;;
22565;SDS011;11449;51.330;19.378;2023-04-24T03:23:05;52.50;;;24.90;;
22565;SDS011;11449;51.330;19.378;2023-04-24T03:28:13;50.00;;;24.40;;
22565;SDS011;11449;51.330;19.378;2023-04-24T03:33:27;46.50;;;25.00;;
22565;SDS011;11449;51.330;19.378;2023-04-24T03:38:36;44.10;;;23.60;;
22565;SDS011;11449;51.330;19.378;2023-04-24T03:43:54;45.70;;;24.10;;
22565;SDS011;11449;51.330;19.378;2023-04-24T03:49:02;34.20;;;20.50;;
22565;SDS011;11449;51.330;19.378;2023-04-24T03:54:13;35.60;;;21.80;;
22565;SDS011;11449;51.330;19.378;2023-04-24T03:59:21;33.80;;;19.60;;
22565;SDS011;11449;51.330;19.378;2023-04-24T04:04:46;31.20;;;19.90;;
22565;SDS011;11449;51.330;19.378;2023-04-24T04:09:54;36.10;;;18.70;;
22565;SDS011;11449;51.330;19.378;2023-04-24T04:15:01;31.90;;;19.50;;
22565;SDS011;11449;51.330;19.378;2023-04-24T04:20:09;29.70;;;20.60;;
22565;SDS011;11449;51.330;19.378;2023-04-24T04:25:18;29.20;;;18.80;;
22565;SDS011;11449;51.330;19.378;2023-04-24T04:30:27;35.20;;;19.00;;
22565;SDS011;11449;51.330;19.378;2023-04-24T04:35:38;35.90;;;21.70;;
22565;SDS011;11449;51.330;19.378;2023-04-24T04:40:47;36.60;;;22.40;;
22565;SDS011;11449;51.330;19.378;2023-04-24T04:45:55;28.30;;;18.60;;
22565;SDS011;11449;51.330;19.378;2023-04-24T04:51:20;28.50;;;18.70;;
22565;SDS011;11449;51.330;19.378;2023-04-24T04:56:28;38.50;;;24.60;;
22565;SDS011;11449;51.330;19.378;2023-04-24T05:01:37;35.00;;;22.30;;
22565;SDS011;11449;51.330;19.378;2023-04-24T05:06:45;39.60;;;23.30;;
22565;SDS011;11449;51.330;19.378;2023-04-24T05:11:55;36.90;;;21.20;;
22565;SDS011;11449;51.330;19.378;2023-04-24T05:17:05;37.40;;;21.20;;
22565;SDS011;11449;51.330;19.378;2023-04-24T05:22:13;30.60;;;19.40;;
22565;SDS011;11449;51.330;19.378;2023-04-24T05:27:24;30.20;;;17.60;;
22565;SDS011;11449;51.330;19.378;2023-04-24T05:32:32;23.20;;;12.60;;
22565;SDS011;11449;51.330;19.378;2023-04-24T05:37:40;14.90;;;10.30;;
22565;SDS011;11449;51.330;19.378;2023-04-24T05:42:48;16.90;;;10.20;;
22565;SDS011;11449;51.330;19.378;2023-04-24T05:47:59;13.90;;;9.80;;
22565;SDS011;11449;51.330;19.378;2023-04-24T05:53:07;15.40;;;8.70;;
22565;SDS011;11449;51.330;19.378;2023-04-24T05:58:16;11.80;;;8.30;;
22565;SDS011;11449;51.330;19.378;2023-04-24T06:03:24;14.50;;;9.50;;
22565;SDS011;11449;51.330;19.378;2023-04-24T06:08:32;16.90;;;9.40;;
22565;SDS011;11449;51.330;19.378;2023-04-24T06:13:40;21.20;;;11.40;;
22565;SDS011;11449;51.330;19.378;2023-04-24T06:19:06;15.00;;;7.30;;
22565;SDS011;11449;51.330;19.378;2023-04-24T06:24:14;12.00;;;7.30;;
22565;SDS011;11449;51.330;19.378;2023-04-24T06:29:24;20.80;;;8.00;;
22565;SDS011;11449;51.330;19.378;2023-04-24T06:34:31;13.10;;;7.30;;
22565;SDS011;11449;51.330;19.378;2023-04-24T06:39:41;11.00;;;6.20;;
22565;SDS011;11449;51.330;19.378;2023-04-24T06:44:49;11.60;;;7.90;;
22565;SDS011;11449;51.330;19.378;2023-04-24T06:49:57;11.80;;;7.90;;
22565;SDS011;11449;51.330;19.378;2023-04-24T06:55:05;10.70;;;6.40;;
22565;SDS011;11449;51.330;19.378;2023-04-24T07:00:12;9.40;;;5.90;;
22565;SDS011;11449;51.330;19.378;2023-04-24T07:05:20;7.70;;;5.60;;
22565;SDS011;11449;51.330;19.378;2023-04-24T07:10:28;8.30;;;5.80;;
22565;SDS011;11449;51.330;19.378;2023-04-24T07:15:35;9.20;;;6.70;;
22565;SDS011;11449;51.330;19.378;2023-04-24T07:20:43;8.30;;;6.30;;
22565;SDS011;11449;51.330;19.378;2023-04-24T07:25:51;18.80;;;7.60;;
22565;SDS011;11449;51.330;19.378;2023-04-24T07:30:59;17.30;;;8.20;;
22565;SDS011;11449;51.330;19.378;2023-04-24T07:36:07;10.80;;;7.00;;
22565;SDS011;11449;51.330;19.378;2023-04-24T07:41:15;12.00;;;7.20;;
22565;SDS011;11449;51.330;19.378;2023-04-24T07:46:22;13.60;;;8.30;;
22565;SDS011;11449;51.330;19.378;2023-04-24T07:51:30;13.20;;;7.90;;
22565;SDS011;11449;51.330;19.378;2023-04-24T07:56:40;13.50;;;8.30;;
22565;SDS011;11449;51.330;19.378;2023-04-24T08:01:50;12.60;;;8.30;;
22565;SDS011;11449;51.330;19.378;2023-04-24T08:06:57;11.50;;;6.90;;
22565;SDS011;11449;51.330;19.378;2023-04-24T08:12:05;10.40;;;7.00;;
22565;SDS011;11449;51.330;19.378;2023-04-24T08:17:13;8.40;;;6.00;;
22565;SDS011;11449;51.330;19.378;2023-04-24T08:22:21;10.30;;;4.90;;
22565;SDS011;11449;51.330;19.378;2023-04-24T08:27:28;9.30;;;5.60;;
22565;SDS011;11449;51.330;19.378;2023-04-24T08:32:36;8.50;;;5.50;;
22565;SDS011;11449;51.330;19.378;2023-04-24T08:37:44;10.30;;;5.50;;
22565;SDS011;11449;51.330;19.378;2023-04-24T08:42:52;10.70;;;6.20;;
22565;SDS011;11449;51.330;19.378;2023-04-24T08:48:00;9.90;;;5.90;;
22565;SDS011;11449;51.330;19.378;2023-04-24T08:53:10;10.10;;;7.10;;
22565;SDS011;11449;51.330;19.378;2023-04-24T08:58:18;9.60;;;5.60;;
22565;SDS011;11449;51.330;19.378;2023-04-24T09:03:27;8.80;;;5.10;;
22565;SDS011;11449;51.330;19.378;2023-04-24T09:08:35;11.80;;;5.50;;
22565;SDS011;11449;51.330;19.378;2023-04-24T09:13:43;5.90;;;4.90;;
22565;SDS011;11449;51.330;19.378;2023-04-24T09:18:51;8.10;;;5.10;;
22565;SDS011;11449;51.330;19.378;2023-04-24T09:23:59;7.40;;;4.90;;
22565;SDS011;11449;51.330;19.378;2023-04-24T09:29:08;9.50;;;5.80;;
22565;SDS011;11449;51.330;19.378;2023-04-24T09:34:21;6.90;;;5.30;;
22565;SDS011;11449;51.330;19.378;2023-04-24T09:39:30;9.70;;;5.60;;
22565;SDS011;11449;51.330;19.378;2023-04-24T09:44:37;8.10;;;5.10;;
22565;SDS011;11449;51.330;19.378;2023-04-24T09:49:45;8.60;;;4.40;;
22565;SDS011;11449;51.330;19.378;2023-04-24T09:54:53;9.60;;;4.40;;
22565;SDS011;11449;51.330;19.378;2023-04-24T10:00:01;6.20;;;4.30;;
22565;SDS011;11449;51.330;19.378;2023-04-24T10:05:13;5.00;;;4.50;;
22565;SDS011;11449;51.330;19.378;2023-04-24T10:10:20;6.50;;;4.60;;
22565;SDS011;11449;51.330;19.378;2023-04-24T10:15:28;6.30;;;4.70;;
22565;SDS011;11449;51.330;19.378;2023-04-24T10:20:37;6.50;;;4.50;;
22565;SDS011;11449;51.330;19.378;2023-04-24T10:25:45;6.90;;;4.40;;
22565;SDS011;11449;51.330;19.378;2023-04-24T10:30:53;9.50;;;7.50;;
22565;SDS011;11449;51.330;19.378;2023-04-24T10:36:02;9.10;;;6.30;;
22565;SDS011;11449;51.330;19.378;2023-04-24T10:41:10;28.60;;;7.10;;
22565;SDS011;11449;51.330;19.378;2023-04-24T10:46:23;13.20;;;6.40;;
22565;SDS011;11449;51.330;19.378;2023-04-24T10:51:48;13.40;;;7.50;;
22565;SDS011;11449;51.330;19.378;2023-04-24T11:02:35;11.30;;;5.30;;
22565;SDS011;11449;51.330;19.378;2023-04-24T11:13:10;6.60;;;4.60;;
22565;SDS011;11449;51.330;19.378;2023-04-24T11:18:17;6.50;;;4.60;;
22565;SDS011;11449;51.330;19.378;2023-04-24T11:23:25;9.20;;;4.40;;
22565;SDS011;11449;51.330;19.378;2023-04-24T11:28:33;5.70;;;4.60;;
22565;SDS011;11449;51.330;19.378;2023-04-24T11:33:41;9.80;;;4.90;;
22565;SDS011;11449;51.330;19.378;2023-04-24T11:38:48;8.40;;;4.70;;
22565;SDS011;11449;51.330;19.378;2023-04-24T11:43:56;4.70;;;4.00;;
22565;SDS011;11449;51.330;19.378;2023-04-24T11:49:04;7.40;;;4.50;;
22565;SDS011;11449;51.330;19.378;2023-04-24T11:54:08;4.90;;;3.50;;
22565;SDS011;11449;51.330;19.378;2023-04-24T11:59:16;5.20;;;4.30;;
22565;SDS011;11449;51.330;19.378;2023-04-24T12:04:23;5.80;;;3.90;;
22565;SDS011;11449;51.330;19.378;2023-04-24T12:09:44;5.00;;;3.30;;
22565;SDS011;11449;51.330;19.378;2023-04-24T12:14:53;8.50;;;6.70;;
22565;SDS011;11449;51.330;19.378;2023-04-24T12:20:06;4.10;;;3.70;;
22565;SDS011;11449;51.330;19.378;2023-04-24T12:25:15;6.60;;;4.00;;
22565;SDS011;11449;51.330;19.378;2023-04-24T12:30:26;5.30;;;3.60;;
22565;SDS011;11449;51.330;19.378;2023-04-24T12:35:35;5.00;;;3.80;;
22565;SDS011;11449;51.330;19.378;2023-04-24T12:40:43;4.90;;;3.90;;
22565;SDS011;11449;51.330;19.378;2023-04-24T12:45:51;5.30;;;3.80;;
22565;SDS011;11449;51.330;19.378;2023-04-24T12:50:58;5.70;;;3.80;;
22565;SDS011;11449;51.330;19.378;2023-04-24T12:56:08;3.70;;;2.90;;
22565;SDS011;11449;51.330;19.378;2023-04-24T13:01:17;4.40;;;3.20;;
22565;SDS011;11449;51.330;19.378;2023-04-24T13:06:25;5.00;;;3.40;;
22565;SDS011;11449;51.330;19.378;2023-04-24T13:11:34;6.40;;;4.80;;
22565;SDS011;11449;51.330;19.378;2023-04-24T13:16:41;4.70;;;4.10;;
22565;SDS011;11449;51.330;19.378;2023-04-24T13:21:49;4.10;;;3.00;;
22565;SDS011;11449;51.330;19.378;2023-04-24T13:26:57;3.80;;;3.30;;
22565;SDS011;11449;51.330;19.378;2023-04-24T13:32:05;5.30;;;2.90;;
22565;SDS011;11449;51.330;19.378;2023-04-24T13:37:08;5.00;;;2.80;;
22565;SDS011;11449;51.330;19.378;2023-04-24T13:42:15;4.20;;;3.00;;
22565;SDS011;11449;51.330;19.378;2023-04-24T13:47:23;5.30;;;3.00;;
22565;SDS011;11449;51.330;19.378;2023-04-24T13:52:31;3.90;;;2.70;;
22565;SDS011;11449;51.330;19.378;2023-04-24T13:57:38;77.40;;;51.80;;
22565;SDS011;11449;51.330;19.378;2023-04-24T14:02:46;7.50;;;3.50;;
22565;SDS011;11449;51.330;19.378;2023-04-24T14:07:54;6.60;;;3.20;;
22565;SDS011;11449;51.330;19.378;2023-04-24T14:13:01;5.60;;;4.20;;
22565;SDS011;11449;51.330;19.378;2023-04-24T14:18:09;4.20;;;3.30;;
22565;SDS011;11449;51.330;19.378;2023-04-24T14:23:17;6.10;;;4.00;;
22565;SDS011;11449;51.330;19.378;2023-04-24T14:28:25;5.30;;;2.90;;
22565;SDS011;11449;51.330;19.378;2023-04-24T14:33:33;5.80;;;3.30;;
22565;SDS011;11449;51.330;19.378;2023-04-24T14:38:41;6.50;;;4.30;;
22565;SDS011;11449;51.330;19.378;2023-04-24T14:43:49;7.90;;;4.40;;
22565;SDS011;11449;51.330;19.378;2023-04-24T14:48:57;6.50;;;5.10;;
22565;SDS011;11449;51.330;19.378;2023-04-24T14:54:05;9.40;;;5.20;;
22565;SDS011;11449;51.330;19.378;2023-04-24T14:59:13;6.60;;;5.80;;
22565;SDS011;11449;51.330;19.378;2023-04-24T15:04:21;6.80;;;5.10;;
22565;SDS011;11449;51.330;19.378;2023-04-24T15:09:29;9.30;;;6.70;;
22565;SDS011;11449;51.330;19.378;2023-04-24T15:14:39;7.10;;;5.40;;
22565;SDS011;11449;51.330;19.378;2023-04-24T15:19:46;7.60;;;5.20;;
22565;SDS011;11449;51.330;19.378;2023-04-24T15:24:54;7.40;;;5.90;;
22565;SDS011;11449;51.330;19.378;2023-04-24T15:30:02;8.00;;;5.70;;
22565;SDS011;11449;51.330;19.378;2023-04-24T15:35:10;14.90;;;5.80;;
22565;SDS011;11449;51.330;19.378;2023-04-24T15:40:19;10.50;;;5.90;;
22565;SDS011;11449;51.330;19.378;2023-04-24T15:45:26;6.40;;;5.50;;
22565;SDS011;11449;51.330;19.378;2023-04-24T15:50:34;6.20;;;5.50;;
22565;SDS011;11449;51.330;19.378;2023-04-24T15:55:42;9.90;;;6.50;;
22565;SDS011;11449;51.330;19.378;2023-04-24T16:00:49;11.60;;;6.10;;
22565;SDS011;11449;51.330;19.378;2023-04-24T16:05:57;9.50;;;6.30;;
22565;SDS011;11449;51.330;19.378;2023-04-24T16:11:05;10.90;;;6.40;;
22565;SDS011;11449;51.330;19.378;2023-04-24T16:16:12;7.40;;;6.00;;
22565;SDS011;11449;51.330;19.378;2023-04-24T16:21:20;7.90;;;5.70;;
22565;SDS011;11449;51.330;19.378;2023-04-24T16:26:28;8.70;;;6.30;;
22565;SDS011;11449;51.330;19.378;2023-04-24T16:31:36;7.40;;;6.00;;
22565;SDS011;11449;51.330;19.378;2023-04-24T16:36:43;11.80;;;6.40;;
22565;SDS011;11449;51.330;19.378;2023-04-24T16:41:51;10.10;;;6.40;;
22565;SDS011;11449;51.330;19.378;2023-04-24T16:46:55;13.20;;;6.30;;
22565;SDS011;11449;51.330;19.378;2023-04-24T16:52:03;11.00;;;7.10;;
22565;SDS011;11449;51.330;19.378;2023-04-24T16:57:11;10.30;;;6.60;;
22565;SDS011;11449;51.330;19.378;2023-04-24T17:02:19;10.00;;;6.60;;
22565;SDS011;11449;51.330;19.378;2023-04-24T17:07:26;8.60;;;6.60;;
22565;SDS011;11449;51.330;19.378;2023-04-24T17:12:34;8.60;;;7.10;;
22565;SDS011;11449;51.330;19.378;2023-04-24T17:17:42;9.30;;;7.20;;
22565;SDS011;11449;51.330;19.378;2023-04-24T17:22:50;10.40;;;7.70;;
22565;SDS011;11449;51.330;19.378;2023-04-24T17:27:58;11.30;;;8.20;;
22565;SDS011;11449;51.330;19.378;2023-04-24T17:33:05;12.90;;;8.60;;
22565;SDS011;11449;51.330;19.378;2023-04-24T17:38:13;10.80;;;8.20;;
22565;SDS011;11449;51.330;19.378;2023-04-24T17:43:21;11.90;;;7.90;;
22565;SDS011;11449;51.330;19.378;2023-04-24T17:48:29;11.70;;;8.30;;
22565;SDS011;11449;51.330;19.378;2023-04-24T17:53:37;12.20;;;9.40;;
22565;SDS011;11449;51.330;19.378;2023-04-24T17:58:46;11.50;;;8.70;;
22565;SDS011;11449;51.330;19.378;2023-04-24T18:03:53;13.10;;;9.30;;
22565;SDS011;11449;51.330;19.378;2023-04-24T18:09:01;12.40;;;9.40;;
22565;SDS011;11449;51.330;19.378;2023-04-24T18:14:10;11.90;;;9.10;;
22565;SDS011;11449;51.330;19.378;2023-04-24T18:19:17;11.30;;;8.90;;
22565;SDS011;11449;51.330;19.378;2023-04-24T18:24:25;12.10;;;8.90;;
22565;SDS011;11449;51.330;19.378;2023-04-24T18:29:33;11.60;;;8.50;;
22565;SDS011;11449;51.330;19.378;2023-04-24T18:34:41;11.70;;;9.70;;
22565;SDS011;11449;51.330;19.378;2023-04-24T18:39:49;12.60;;;9.50;;
22565;SDS011;11449;51.330;19.378;2023-04-24T18:44:57;12.50;;;9.30;;
22565;SDS011;11449;51.330;19.378;2023-04-24T18:50:10;14.50;;;9.80;;
22565;SDS011;11449;51.330;19.378;2023-04-24T18:55:18;13.40;;;9.30;;
22565;SDS011;11449;51.330;19.378;2023-04-24T19:00:26;13.60;;;9.80;;
22565;SDS011;11449;51.330;19.378;2023-04-24T19:05:34;16.30;;;10.20;;
22565;SDS011;11449;51.330;19.378;2023-04-24T19:10:41;12.80;;;10.00;;
22565;SDS011;11449;51.330;19.378;2023-04-24T19:15:49;12.00;;;9.40;;
22565;SDS011;11449;51.330;19.378;2023-04-24T19:20:57;13.10;;;9.50;;
22565;SDS011;11449;51.330;19.378;2023-04-24T19:26:06;13.10;;;10.50;;
22565;SDS011;11449;51.330;19.378;2023-04-24T19:31:13;15.40;;;10.60;;
22565;SDS011;11449;51.330;19.378;2023-04-24T19:36:21;13.00;;;9.60;;
22565;SDS011;11449;51.330;19.378;2023-04-24T19:41:30;12.40;;;9.90;;
22565;SDS011;11449;51.330;19.378;2023-04-24T19:46:38;14.00;;;10.50;;
22565;SDS011;11449;51.330;19.378;2023-04-24T19:51:46;12.40;;;9.90;;
22565;SDS011;11449;51.330;19.378;2023-04-24T19:56:54;13.80;;;10.90;;
22565;SDS011;11449;51.330;19.378;2023-04-24T20:02:02;12.50;;;10.80;;
22565;SDS011;11449;51.330;19.378;2023-04-24T20:07:10;17.20;;;11.50;;
22565;SDS011;11449;51.330;19.378;2023-04-24T20:12:19;15.40;;;11.40;;
22565;SDS011;11449;51.330;19.378;2023-04-24T20:17:27;15.50;;;11.50;;
22565;SDS011;11449;51.330;19.378;2023-04-24T20:22:35;16.60;;;11.60;;
22565;SDS011;11449;51.330;19.378;2023-04-24T20:27:45;18.20;;;13.00;;
22565;SDS011;11449;51.330;19.378;2023-04-24T20:32:53;17.80;;;12.50;;
22565;SDS011;11449;51.330;19.378;2023-04-24T20:38:00;15.70;;;12.10;;
22565;SDS011;11449;51.330;19.378;2023-04-24T20:43:09;19.10;;;13.40;;
22565;SDS011;11449;51.330;19.378;2023-04-24T20:48:17;17.90;;;12.90;;
22565;SDS011;11449;51.330;19.378;2023-04-24T20:53:24;17.90;;;14.40;;
22565;SDS011;11449;51.330;19.378;2023-04-24T20:58:32;19.50;;;14.40;;
22565;SDS011;11449;51.330;19.378;2023-04-24T21:03:42;20.00;;;14.80;;
22565;SDS011;11449;51.330;19.378;2023-04-24T21:08:49;21.70;;;15.30;;
22565;SDS011;11449;51.330;19.378;2023-04-24T21:13:57;20.20;;;13.90;;
22565;SDS011;11449;51.330;19.378;2023-04-24T21:19:05;18.90;;;14.10;;
22565;SDS011;11449;51.330;19.378;2023-04-24T21:24:12;19.70;;;13.00;;
22565;SDS011;11449;51.330;19.378;2023-04-24T21:29:20;17.70;;;13.60;;
22565;SDS011;11449;51.330;19.378;2023-04-24T21:34:28;17.30;;;13.50;;
22565;SDS011;11449;51.330;19.378;2023-04-24T21:39:35;18.50;;;12.90;;
22565;SDS011;11449;51.330;19.378;2023-04-24T21:44:43;17.30;;;12.10;;
22565;SDS011;11449;51.330;19.378;2023-04-24T21:49:50;16.90;;;13.90;;
22565;SDS011;11449;51.330;19.378;2023-04-24T21:54:58;17.00;;;13.70;;
22565;SDS011;11449;51.330;19.378;2023-04-24T22:00:06;16.80;;;12.60;;
22565;SDS011;11449;51.330;19.378;2023-04-24T22:05:14;23.30;;;13.00;;
22565;SDS011;11449;51.330;19.378;2023-04-24T22:10:22;27.50;;;12.50;;
22565;SDS011;11449;51.330;19.378;2023-04-24T22:15:29;14.70;;;10.40;;
22565;SDS011;11449;51.330;19.378;2023-04-24T22:20:38;18.60;;;10.50;;
22565;SDS011;11449;51.330;19.378;2023-04-24T22:25:46;16.60;;;9.30;;
22565;SDS011;11449;51.330;19.378;2023-04-24T22:30:54;18.40;;;9.10;;
22565;SDS011;11449;51.330;19.378;2023-04-24T22:36:02;13.00;;;7.80;;
22565;SDS011;11449;51.330;19.378;2023-04-24T22:41:09;19.80;;;8.50;;
22565;SDS011;11449;51.330;19.378;2023-04-24T22:46:17;15.70;;;8.60;;
22565;SDS011;11449;51.330;19.378;2023-04-24T22:51:25;10.90;;;7.80;;
22565;SDS011;11449;51.330;19.378;2023-04-24T22:56:32;8.10;;;6.40;;
22565;SDS011;11449;51.330;19.378;2023-04-24T23:01:40;6.20;;;5.30;;
22565;SDS011;11449;51.330;19.378;2023-04-24T23:06:48;8.50;;;5.70;;
22565;SDS011;11449;51.330;19.378;2023-04-24T23:11:56;7.60;;;5.10;;
22565;SDS011;11449;51.330;19.378;2023-04-24T23:17:04;6.90;;;4.70;;
22565;SDS011;11449;51.330;19.378;2023-04-24T23:22:12;8.10;;;5.10;;
22565;SDS011;11449;51.330;19.378;2023-04-24T23:27:20;6.10;;;4.60;;
22565;SDS011;11449;51.330;19.378;2023-04-24T23:32:27;6.30;;;4.40;;
22565;SDS011;11449;51.330;19.378;2023-04-24T23:37:35;7.10;;;4.60;;
22565;SDS011;11449;51.330;19.378;2023-04-24T23:42:44;6.40;;;4.20;;
22565;SDS011;11449;51.330;19.378;2023-04-24T23:47:52;8.70;;;5.10;;
22565;SDS011;11449;51.330;19.378;2023-04-24T23:53:00;7.70;;;4.60;;
22565;SDS011;11449;51.330;19.378;2023-04-24T23:58:08;9.50;;;5.30;;
